Impacts TAF Board
For situational awareness. Not to be used for flight planning purposes.
IDs:

KDEN - Denver Intl, CO, US

Issued at 0902 UTC 23 Jul 2019
Updated at 0950 UTC 23 Jul 2019
Potential Impact None Slight Moderate High
Time<<24/10Z 24/11Z 24/12Z 24/13Z 24/14Z 24/15Z 24/16Z 24/17Z 24/18Z 24/19Z 24/20Z 24/21Z 24/22Z
Type PRVL PRVL
VIS >6 >6
CIG -- --
Cover SCT SCT
FltCat VFR VFR
WX -- --
WDir 140 140
WSpd 11 11
WGst -- --
Raw TAF
KDEN 230902Z 2309/2412 18011KT P6SM FEW150
  FM231300 26008KT P6SM FEW150
  FM231700 07007KT P6SM FEW090 SCT150
  FM232100 05012KT P6SM VCTS SCT100CB BKN200
  FM240200 14011KT P6SM FEW100 SCT200


METAR Board
Radar Display
Forecast Discussion
For situational awareness. Not to be used for flight planning purposes.